Gipsy, Missouri
Current Conditions -  °F | °C
As of 1:53 PM on Friday 28 Nov 2014 (Local Time) from KPOF Reporting Station
Clear Clear  
Wind Chill: 44°   Ceiling: Unl
Heat Index: 49°   Visibility: 10mi
Dew Point: 31°   Wind: 14mph
Humidity: 50%   Direction: 190°S
Pressure: 30.11"   Gusts: 26mph
Location:  37.15°N, 90.18°W
Report Text: KPOF 281953Z AUTO 19012G23KT 10SM CLR 09/M01 A3011 RMK AO2 SLP202 T00941006
Loading
Personal Weather Stations






























Interactive Weather Map New forecast layout! Learn more

10-Day Weather Forecast

Advertisements
Track Severe Weather on mobile